sensor_id;sensor_type;location;lat;lon;timestamp;temperature;humidity
55016;DHT22;40919;43.236;21.590;2022-12-08T00:13:42;230.90;2252.80
55016;DHT22;40919;43.236;21.590;2022-12-08T00:16:08;230.80;2252.80
55016;DHT22;40919;43.236;21.590;2022-12-08T00:18:34;230.70;2252.80
55016;DHT22;40919;43.236;21.590;2022-12-08T00:55:07;230.70;2252.80
55016;DHT22;40919;43.236;21.590;2022-12-08T00:57:33;230.90;2252.80
55016;DHT22;40919;43.236;21.590;2022-12-08T00:59:59;230.40;2252.80
55016;DHT22;40919;43.236;21.590;2022-12-08T05:13:17;205.70;2252.80
55016;DHT22;40919;43.236;21.590;2022-12-08T05:15:43;205.40;2252.80
55016;DHT22;40919;43.236;21.590;2022-12-08T05:18:09;205.20;2252.80
55016;DHT22;40919;43.236;21.590;2022-12-08T05:25:28;205.40;2252.80
55016;DHT22;40919;43.236;21.590;2022-12-08T06:16:38;205.60;2252.80
55016;DHT22;40919;43.236;21.590;2022-12-08T06:19:04;205.40;2252.80
55016;DHT22;40919;43.236;21.590;2022-12-08T06:21:30;205.30;2252.80
55016;DHT22;40919;43.236;21.590;2022-12-08T06:23:56;205.30;2252.80
55016;DHT22;40919;43.236;21.590;2022-12-08T06:26:22;205.30;2252.80
55016;DHT22;40919;43.236;21.590;2022-12-08T06:28:48;205.20;2252.80
55016;DHT22;40919;43.236;21.590;2022-12-08T06:31:22;205.20;2252.80
55016;DHT22;40919;43.236;21.590;2022-12-08T06:53:19;205.70;2252.80
55016;DHT22;40919;43.236;21.590;2022-12-08T06:55:47;205.60;2252.80
55016;DHT22;40919;43.236;21.590;2022-12-08T06:58:15;205.40;2252.80
55016;DHT22;40919;43.236;21.590;2022-12-08T07:00:41;205.30;2252.80
55016;DHT22;40919;43.236;21.590;2022-12-08T07:03:08;205.40;2252.80
55016;DHT22;40919;43.236;21.590;2022-12-08T07:05:36;205.40;2252.80
55016;DHT22;40919;43.236;21.590;2022-12-08T07:08:02;205.30;2252.80
55016;DHT22;40919;43.236;21.590;2022-12-08T07:10:28;205.20;2252.80
55016;DHT22;40919;43.236;21.590;2022-12-08T07:12:54;205.40;2252.80
55016;DHT22;40919;43.236;21.590;2022-12-08T07:15:20;205.50;2252.80
55016;DHT22;40919;43.236;21.590;2022-12-08T07:17:47;205.50;2252.80
55016;DHT22;40919;43.236;21.590;2022-12-08T07:20:13;205.40;2252.80
55016;DHT22;40919;43.236;21.590;2022-12-08T07:22:39;205.40;2252.80
55016;DHT22;40919;43.236;21.590;2022-12-08T07:25:05;205.40;2252.80
55016;DHT22;40919;43.236;21.590;2022-12-08T07:27:31;205.50;2252.80
55016;DHT22;40919;43.236;21.590;2022-12-08T07:29:57;205.60;2252.80
55016;DHT22;40919;43.236;21.590;2022-12-08T07:32:23;230.50;2252.80
55016;DHT22;40919;43.236;21.590;2022-12-08T07:34:49;205.70;2252.80
55016;DHT22;40919;43.236;21.590;2022-12-08T07:37:15;230.50;2252.80
55016;DHT22;40919;43.236;21.590;2022-12-08T07:39:40;230.40;2252.80
55016;DHT22;40919;43.236;21.590;2022-12-08T07:42:07;230.40;2252.80
55016;DHT22;40919;43.236;21.590;2022-12-08T07:44:33;230.40;2252.80
55016;DHT22;40919;43.236;21.590;2022-12-08T07:46:58;230.40;2252.80
55016;DHT22;40919;43.236;21.590;2022-12-08T07:49:24;205.70;2252.80
55016;DHT22;40919;43.236;21.590;2022-12-08T07:51:50;230.40;2252.80
55016;DHT22;40919;43.236;21.590;2022-12-08T07:54:16;230.50;2252.80
55016;DHT22;40919;43.236;21.590;2022-12-08T07:56:42;230.60;2252.80
55016;DHT22;40919;43.236;21.590;2022-12-08T07:59:07;230.40;2252.80
55016;DHT22;40919;43.236;21.590;2022-12-08T08:01:34;230.40;2252.80
55016;DHT22;40919;43.236;21.590;2022-12-08T08:04:02;230.50;2252.80
55016;DHT22;40919;43.236;21.590;2022-12-08T08:06:29;230.40;2252.80
55016;DHT22;40919;43.236;21.590;2022-12-08T08:08:55;205.70;2252.80
55016;DHT22;40919;43.236;21.590;2022-12-08T08:11:21;205.70;2252.80
55016;DHT22;40919;43.236;21.590;2022-12-08T08:13:48;230.40;2252.80
55016;DHT22;40919;43.236;21.590;2022-12-08T08:16:14;230.40;2252.80
55016;DHT22;40919;43.236;21.590;2022-12-08T08:18:40;230.40;2252.80
55016;DHT22;40919;43.236;21.590;2022-12-08T08:21:06;230.40;2252.80
55016;DHT22;40919;43.236;21.590;2022-12-08T08:23:32;230.40;2252.80
55016;DHT22;40919;43.236;21.590;2022-12-08T08:26:00;230.50;2252.80
55016;DHT22;40919;43.236;21.590;2022-12-08T08:28:26;230.40;2252.80
55016;DHT22;40919;43.236;21.590;2022-12-08T08:30:52;230.40;2252.80
55016;DHT22;40919;43.236;21.590;2022-12-08T08:33:18;230.40;2252.80
55016;DHT22;40919;43.236;21.590;2022-12-08T08:35:44;230.50;2252.80
55016;DHT22;40919;43.236;21.590;2022-12-08T08:38:10;230.50;2252.80
55016;DHT22;40919;43.236;21.590;2022-12-08T08:40:35;230.50;2252.80
55016;DHT22;40919;43.236;21.590;2022-12-08T08:43:03;230.50;2252.80
55016;DHT22;40919;43.236;21.590;2022-12-08T08:45:30;230.50;2252.80
55016;DHT22;40919;43.236;21.590;2022-12-08T08:47:56;230.60;2252.80
55016;DHT22;40919;43.236;21.590;2022-12-08T08:50:22;230.70;2252.80
55016;DHT22;40919;43.236;21.590;2022-12-08T08:52:48;230.80;2252.80
55016;DHT22;40919;43.236;21.590;2022-12-08T08:55:15;230.90;2252.80
55016;DHT22;40919;43.236;21.590;2022-12-08T08:57:41;230.90;2252.80
55016;DHT22;40919;43.236;21.590;2022-12-08T09:00:07;230.90;2252.80
55016;DHT22;40919;43.236;21.590;2022-12-08T09:02:35;231.00;2252.80
55016;DHT22;40919;43.236;21.590;2022-12-08T09:05:02;231.00;2252.80
55016;DHT22;40919;43.236;21.590;2022-12-08T09:07:27;231.10;2252.80
55016;DHT22;40919;43.236;21.590;2022-12-08T09:09:53;231.10;2252.80
55016;DHT22;40919;43.236;21.590;2022-12-08T09:12:20;231.10;2252.80
55016;DHT22;40919;43.236;21.590;2022-12-08T09:14:45;231.20;2252.80
55016;DHT22;40919;43.236;21.590;2022-12-08T09:17:12;231.20;2252.80
55016;DHT22;40919;43.236;21.590;2022-12-08T09:19:37;231.30;2252.80
55016;DHT22;40919;43.236;21.590;2022-12-08T09:22:04;231.00;2252.80
55016;DHT22;40919;43.236;21.590;2022-12-08T09:24:29;231.30;2252.80
55016;DHT22;40919;43.236;21.590;2022-12-08T09:26:55;231.30;2252.80
55016;DHT22;40919;43.236;21.590;2022-12-08T09:29:21;231.30;2252.80
55016;DHT22;40919;43.236;21.590;2022-12-08T09:31:47;231.30;2252.80
55016;DHT22;40919;43.236;21.590;2022-12-08T09:34:13;231.30;2252.80
55016;DHT22;40919;43.236;21.590;2022-12-08T10:12:17;281.90;2278.40
55016;DHT22;40919;43.236;21.590;2022-12-08T10:14:57;281.80;2124.80
55016;DHT22;40919;43.236;21.590;2022-12-08T10:17:39;281.80;2278.40
55016;DHT22;40919;43.236;21.590;2022-12-08T10:22:39;282.10;2278.40
55016;DHT22;40919;43.236;21.590;2022-12-08T10:25:16;282.10;2278.40
55016;DHT22;40919;43.236;21.590;2022-12-08T10:27:42;282.00;2278.40
55016;DHT22;40919;43.236;21.590;2022-12-08T10:30:13;282.00;2278.40
55016;DHT22;40919;43.236;21.590;2022-12-08T10:32:40;282.00;2278.40
55016;DHT22;40919;43.236;21.590;2022-12-08T10:35:10;282.10;2278.40
55016;DHT22;40919;43.236;21.590;2022-12-08T10:37:37;282.20;2278.40
55016;DHT22;40919;43.236;21.590;2022-12-08T10:40:16;282.20;2278.40
55016;DHT22;40919;43.236;21.590;2022-12-08T10:42:46;282.20;2099.20
55016;DHT22;40919;43.236;21.590;2022-12-08T10:45:32;282.20;2278.40
55016;DHT22;40919;43.236;21.590;2022-12-08T10:48:23;282.20;2278.40
55016;DHT22;40919;43.236;21.590;2022-12-08T10:50:55;282.20;2278.40
55016;DHT22;40919;43.236;21.590;2022-12-08T10:53:24;282.20;2278.40
55016;DHT22;40919;43.236;21.590;2022-12-08T10:55:52;282.40;2278.40
55016;DHT22;40919;43.236;21.590;2022-12-08T10:58:46;282.50;2278.40
55016;DHT22;40919;43.236;21.590;2022-12-08T11:01:33;282.50;2278.40
55016;DHT22;40919;43.236;21.590;2022-12-08T11:04:03;282.50;2278.40
55016;DHT22;40919;43.236;21.590;2022-12-08T11:06:30;282.50;2278.40
55016;DHT22;40919;43.236;21.590;2022-12-08T11:08:59;307.30;2304.00
55016;DHT22;40919;43.236;21.590;2022-12-08T11:14:26;307.60;2304.00
55016;DHT22;40919;43.236;21.590;2022-12-08T11:17:08;307.50;2304.00
55016;DHT22;40919;43.236;21.590;2022-12-08T11:19:36;307.50;2304.00
55016;DHT22;40919;43.236;21.590;2022-12-08T11:22:20;307.40;2304.00
55016;DHT22;40919;43.236;21.590;2022-12-08T11:27:24;307.60;2304.00
55016;DHT22;40919;43.236;21.590;2022-12-08T11:29:50;307.80;2304.00
55016;DHT22;40919;43.236;21.590;2022-12-08T11:32:16;307.70;2304.00
55016;DHT22;40919;43.236;21.590;2022-12-08T11:34:54;307.80;2304.00
55016;DHT22;40919;43.236;21.590;2022-12-08T11:37:36;307.80;2304.00
55016;DHT22;40919;43.236;21.590;2022-12-08T11:40:22;307.80;2304.00
55016;DHT22;40919;43.236;21.590;2022-12-08T11:43:17;307.80;2304.00
55016;DHT22;40919;43.236;21.590;2022-12-08T11:45:44;307.80;2304.00
55016;DHT22;40919;43.236;21.590;2022-12-08T11:48:13;307.90;2304.00
55016;DHT22;40919;43.236;21.590;2022-12-08T11:53:37;308.00;2304.00
55016;DHT22;40919;43.236;21.590;2022-12-08T11:56:21;308.00;2304.00
55016;DHT22;40919;43.236;21.590;2022-12-08T11:58:52;332.80;2329.60
55016;DHT22;40919;43.236;21.590;2022-12-08T12:01:21;308.10;2304.00
55016;DHT22;40919;43.236;21.590;2022-12-08T12:03:58;308.10;2304.00
55016;DHT22;40919;43.236;21.590;2022-12-08T12:09:28;332.90;2329.60
55016;DHT22;40919;43.236;21.590;2022-12-08T12:12:17;332.90;2329.60
55016;DHT22;40919;43.236;21.590;2022-12-08T12:17:52;332.90;2329.60
55016;DHT22;40919;43.236;21.590;2022-12-08T12:20:24;332.90;2329.60
55016;DHT22;40919;43.236;21.590;2022-12-08T12:23:03;333.00;2329.60
55016;DHT22;40919;43.236;21.590;2022-12-08T12:25:31;333.00;2329.60
55016;DHT22;40919;43.236;21.590;2022-12-08T12:28:02;332.90;2329.60
55016;DHT22;40919;43.236;21.590;2022-12-08T12:31:20;332.90;2329.60
55016;DHT22;40919;43.236;21.590;2022-12-08T12:33:19;333.00;2329.60
55016;DHT22;40919;43.236;21.590;2022-12-08T12:35:47;333.00;2329.60
55016;DHT22;40919;43.236;21.590;2022-12-08T12:38:29;333.00;2329.60
55016;DHT22;40919;43.236;21.590;2022-12-08T12:41:22;333.00;2329.60
55016;DHT22;40919;43.236;21.590;2022-12-08T12:46:39;333.00;2329.60
55016;DHT22;40919;43.236;21.590;2022-12-08T12:55:17;332.90;2329.60
55016;DHT22;40919;43.236;21.590;2022-12-08T12:57:38;332.90;2329.60
55016;DHT22;40919;43.236;21.590;2022-12-08T13:02:43;332.90;2329.60
55016;DHT22;40919;43.236;21.590;2022-12-08T13:07:49;332.90;2329.60
55016;DHT22;40919;43.236;21.590;2022-12-08T13:13:21;333.00;2329.60
55016;DHT22;40919;43.236;21.590;2022-12-08T13:15:49;332.90;2329.60
55016;DHT22;40919;43.236;21.590;2022-12-08T13:18:22;332.90;2329.60
55016;DHT22;40919;43.236;21.590;2022-12-08T13:26:24;332.80;2329.60
55016;DHT22;40919;43.236;21.590;2022-12-08T13:31:46;332.80;2329.60
55016;DHT22;40919;43.236;21.590;2022-12-08T13:34:16;332.80;2329.60
55016;DHT22;40919;43.236;21.590;2022-12-08T13:39:51;308.10;2304.00
55016;DHT22;40919;43.236;21.590;2022-12-08T13:42:32;308.10;2304.00
55016;DHT22;40919;43.236;21.590;2022-12-08T13:47:56;308.10;2304.00
55016;DHT22;40919;43.236;21.590;2022-12-08T13:50:49;308.10;2304.00
55016;DHT22;40919;43.236;21.590;2022-12-08T13:55:48;308.00;2304.00
55016;DHT22;40919;43.236;21.590;2022-12-08T13:58:37;308.00;2304.00
55016;DHT22;40919;43.236;21.590;2022-12-08T14:01:07;308.00;2304.00
55016;DHT22;40919;43.236;21.590;2022-12-08T14:06:18;307.90;2304.00
55016;DHT22;40919;43.236;21.590;2022-12-08T14:08:53;307.90;2304.00
55016;DHT22;40919;43.236;21.590;2022-12-08T14:11:45;307.80;2304.00
55016;DHT22;40919;43.236;21.590;2022-12-08T14:14:37;307.80;2304.00
55016;DHT22;40919;43.236;21.590;2022-12-08T14:17:06;307.80;2304.00
55016;DHT22;40919;43.236;21.590;2022-12-08T14:19:34;307.90;2304.00
55016;DHT22;40919;43.236;21.590;2022-12-08T14:22:15;307.90;2304.00
55016;DHT22;40919;43.236;21.590;2022-12-08T14:24:52;307.90;2304.00
55016;DHT22;40919;43.236;21.590;2022-12-08T14:27:23;307.80;2022.40
55016;DHT22;40919;43.236;21.590;2022-12-08T14:29:54;307.80;2048.00
55016;DHT22;40919;43.236;21.590;2022-12-08T14:41:06;307.70;2304.00
55016;DHT22;40919;43.236;21.590;2022-12-08T14:43:33;307.70;2304.00
55016;DHT22;40919;43.236;21.590;2022-12-08T14:46:04;307.70;2304.00
55016;DHT22;40919;43.236;21.590;2022-12-08T14:51:10;307.50;2304.00
55016;DHT22;40919;43.236;21.590;2022-12-08T14:53:40;307.50;2304.00
55016;DHT22;40919;43.236;21.590;2022-12-08T14:56:52;307.50;2304.00
55016;DHT22;40919;43.236;21.590;2022-12-08T14:59:19;307.40;2304.00
55016;DHT22;40919;43.236;21.590;2022-12-08T15:01:49;307.40;2304.00
55016;DHT22;40919;43.236;21.590;2022-12-08T15:04:26;307.30;2304.00
55016;DHT22;40919;43.236;21.590;2022-12-08T15:06:56;307.40;2304.00
55016;DHT22;40919;43.236;21.590;2022-12-08T15:09:35;307.40;2304.00
55016;DHT22;40919;43.236;21.590;2022-12-08T15:12:05;307.40;2304.00
55016;DHT22;40919;43.236;21.590;2022-12-08T15:14:34;307.30;2304.00
55016;DHT22;40919;43.236;21.590;2022-12-08T15:17:00;307.30;2304.00
55016;DHT22;40919;43.236;21.590;2022-12-08T15:19:29;282.40;2278.40
55016;DHT22;40919;43.236;21.590;2022-12-08T15:22:17;307.20;2304.00
55016;DHT22;40919;43.236;21.590;2022-12-08T15:24:44;282.50;2278.40
55016;DHT22;40919;43.236;21.590;2022-12-08T15:27:16;282.50;2278.40
55016;DHT22;40919;43.236;21.590;2022-12-08T15:29:43;282.50;2278.40
55016;DHT22;40919;43.236;21.590;2022-12-08T15:32:10;282.50;2278.40
55016;DHT22;40919;43.236;21.590;2022-12-08T15:34:36;282.40;2278.40
55016;DHT22;40919;43.236;21.590;2022-12-08T15:37:03;282.50;2278.40
55016;DHT22;40919;43.236;21.590;2022-12-08T15:39:30;282.40;2278.40
55016;DHT22;40919;43.236;21.590;2022-12-08T15:41:58;282.40;2278.40
55016;DHT22;40919;43.236;21.590;2022-12-08T15:44:24;282.30;2278.40
55016;DHT22;40919;43.236;21.590;2022-12-08T15:46:50;282.40;2278.40
55016;DHT22;40919;43.236;21.590;2022-12-08T15:49:20;282.50;2278.40
55016;DHT22;40919;43.236;21.590;2022-12-08T15:51:47;282.50;2278.40
55016;DHT22;40919;43.236;21.590;2022-12-08T15:54:13;282.50;2278.40
55016;DHT22;40919;43.236;21.590;2022-12-08T15:56:48;282.50;2278.40
55016;DHT22;40919;43.236;21.590;2022-12-08T15:59:20;282.50;2278.40
55016;DHT22;40919;43.236;21.590;2022-12-08T16:01:47;282.50;2278.40
55016;DHT22;40919;43.236;21.590;2022-12-08T16:04:18;282.40;2278.40
55016;DHT22;40919;43.236;21.590;2022-12-08T16:06:52;282.50;2278.40
55016;DHT22;40919;43.236;21.590;2022-12-08T16:09:35;282.50;2278.40
55016;DHT22;40919;43.236;21.590;2022-12-08T16:12:04;307.20;2304.00
55016;DHT22;40919;43.236;21.590;2022-12-08T16:14:48;307.20;2304.00
55016;DHT22;40919;43.236;21.590;2022-12-08T16:17:17;282.50;2278.40
55016;DHT22;40919;43.236;21.590;2022-12-08T16:19:44;282.50;2278.40
55016;DHT22;40919;43.236;21.590;2022-12-08T16:22:25;307.60;2304.00
55016;DHT22;40919;43.236;21.590;2022-12-08T16:24:51;282.50;2278.40
55016;DHT22;40919;43.236;21.590;2022-12-08T16:29:48;282.40;2278.40
55016;DHT22;40919;43.236;21.590;2022-12-08T16:32:14;282.40;2278.40
55016;DHT22;40919;43.236;21.590;2022-12-08T16:34:40;282.40;2278.40
55016;DHT22;40919;43.236;21.590;2022-12-08T16:37:12;282.40;2278.40
55016;DHT22;40919;43.236;21.590;2022-12-08T16:39:38;282.40;2278.40
55016;DHT22;40919;43.236;21.590;2022-12-08T16:42:04;282.40;2278.40
55016;DHT22;40919;43.236;21.590;2022-12-08T16:44:48;282.40;2278.40
55016;DHT22;40919;43.236;21.590;2022-12-08T16:47:14;282.30;2278.40
55016;DHT22;40919;43.236;21.590;2022-12-08T16:49:40;282.40;2278.40
55016;DHT22;40919;43.236;21.590;2022-12-08T16:52:05;282.40;2278.40
55016;DHT22;40919;43.236;21.590;2022-12-08T16:54:31;282.40;2278.40
55016;DHT22;40919;43.236;21.590;2022-12-08T16:56:57;282.20;2278.40
55016;DHT22;40919;43.236;21.590;2022-12-08T16:59:23;282.20;2278.40
55016;DHT22;40919;43.236;21.590;2022-12-08T17:01:49;282.20;2278.40
55016;DHT22;40919;43.236;21.590;2022-12-08T17:04:14;282.20;2278.40
55016;DHT22;40919;43.236;21.590;2022-12-08T17:06:40;282.20;2278.40
55016;DHT22;40919;43.236;21.590;2022-12-08T17:09:06;282.20;2278.40
55016;DHT22;40919;43.236;21.590;2022-12-08T17:11:32;282.20;2278.40
55016;DHT22;40919;43.236;21.590;2022-12-08T17:13:58;282.20;2278.40
55016;DHT22;40919;43.236;21.590;2022-12-08T17:16:25;282.20;2278.40
55016;DHT22;40919;43.236;21.590;2022-12-08T17:18:52;282.20;2278.40
55016;DHT22;40919;43.236;21.590;2022-12-08T17:38:27;282.30;2278.40
55016;DHT22;40919;43.236;21.590;2022-12-08T17:40:53;282.20;2278.40
55016;DHT22;40919;43.236;21.590;2022-12-08T17:43:18;282.10;2278.40
55016;DHT22;40919;43.236;21.590;2022-12-08T17:45:46;282.00;2278.40
55016;DHT22;40919;43.236;21.590;2022-12-08T17:48:13;281.90;2278.40
55016;DHT22;40919;43.236;21.590;2022-12-08T17:50:43;281.90;2278.40
55016;DHT22;40919;43.236;21.590;2022-12-08T17:53:10;281.90;2278.40
55016;DHT22;40919;43.236;21.590;2022-12-08T17:55:36;282.00;2278.40
55016;DHT22;40919;43.236;21.590;2022-12-08T17:58:03;282.00;2278.40
55016;DHT22;40919;43.236;21.590;2022-12-08T18:00:30;281.90;2278.40
55016;DHT22;40919;43.236;21.590;2022-12-08T18:02:56;282.00;2278.40
55016;DHT22;40919;43.236;21.590;2022-12-08T18:05:22;281.80;2278.40
55016;DHT22;40919;43.236;21.590;2022-12-08T18:07:48;281.80;2278.40
55016;DHT22;40919;43.236;21.590;2022-12-08T18:10:14;281.90;2278.40
55016;DHT22;40919;43.236;21.590;2022-12-08T18:12:41;281.90;2278.40
55016;DHT22;40919;43.236;21.590;2022-12-08T18:15:09;281.80;2278.40
55016;DHT22;40919;43.236;21.590;2022-12-08T18:17:35;281.70;2278.40
55016;DHT22;40919;43.236;21.590;2022-12-08T18:20:01;281.80;2278.40
55016;DHT22;40919;43.236;21.590;2022-12-08T18:22:27;281.80;2278.40
55016;DHT22;40919;43.236;21.590;2022-12-08T18:24:53;281.70;2278.40
55016;DHT22;40919;43.236;21.590;2022-12-08T18:27:18;281.70;2278.40
55016;DHT22;40919;43.236;21.590;2022-12-08T18:29:44;256.90;2252.80
55016;DHT22;40919;43.236;21.590;2022-12-08T18:32:10;281.60;2278.40
55016;DHT22;40919;43.236;21.590;2022-12-08T18:34:36;281.70;2278.40
55016;DHT22;40919;43.236;21.590;2022-12-08T18:37:01;256.90;2252.80
55016;DHT22;40919;43.236;21.590;2022-12-08T18:39:30;256.90;2252.80
55016;DHT22;40919;43.236;21.590;2022-12-08T18:41:58;256.90;2252.80
55016;DHT22;40919;43.236;21.590;2022-12-08T18:44:24;256.80;2252.80
55016;DHT22;40919;43.236;21.590;2022-12-08T18:46:50;256.90;2252.80
55016;DHT22;40919;43.236;21.590;2022-12-08T18:49:17;256.80;2252.80
55016;DHT22;40919;43.236;21.590;2022-12-08T18:51:44;256.80;2252.80
55016;DHT22;40919;43.236;21.590;2022-12-08T18:54:11;256.90;2252.80
55016;DHT22;40919;43.236;21.590;2022-12-08T18:56:37;256.60;2252.80
55016;DHT22;40919;43.236;21.590;2022-12-08T18:59:09;256.60;2252.80
55016;DHT22;40919;43.236;21.590;2022-12-08T19:01:36;256.60;2252.80
55016;DHT22;40919;43.236;21.590;2022-12-08T19:04:05;256.60;2252.80
55016;DHT22;40919;43.236;21.590;2022-12-08T19:06:31;256.60;2252.80
55016;DHT22;40919;43.236;21.590;2022-12-08T19:08:58;256.50;2252.80
55016;DHT22;40919;43.236;21.590;2022-12-08T19:11:26;256.40;2252.80
55016;DHT22;40919;43.236;21.590;2022-12-08T19:13:54;256.50;2252.80
55016;DHT22;40919;43.236;21.590;2022-12-08T19:16:21;256.40;2252.80
55016;DHT22;40919;43.236;21.590;2022-12-08T19:18:47;256.60;2252.80
55016;DHT22;40919;43.236;21.590;2022-12-08T19:21:13;256.40;2252.80
55016;DHT22;40919;43.236;21.590;2022-12-08T19:23:39;256.50;2252.80
55016;DHT22;40919;43.236;21.590;2022-12-08T19:26:05;256.40;2252.80
55016;DHT22;40919;43.236;21.590;2022-12-08T19:28:33;256.50;2252.80
55016;DHT22;40919;43.236;21.590;2022-12-08T19:31:04;256.50;2252.80
55016;DHT22;40919;43.236;21.590;2022-12-08T19:33:30;256.50;2252.80
55016;DHT22;40919;43.236;21.590;2022-12-08T19:35:55;256.40;2252.80
55016;DHT22;40919;43.236;21.590;2022-12-08T19:38:21;256.30;2252.80
55016;DHT22;40919;43.236;21.590;2022-12-08T19:40:47;256.30;2252.80
55016;DHT22;40919;43.236;21.590;2022-12-08T20:20:31;256.20;2252.80
55016;DHT22;40919;43.236;21.590;2022-12-08T20:22:57;231.30;2252.80
55016;DHT22;40919;43.236;21.590;2022-12-08T20:25:23;231.30;2252.80
55016;DHT22;40919;43.236;21.590;2022-12-08T20:30:16;256.20;2252.80
55016;DHT22;40919;43.236;21.590;2022-12-08T20:32:44;231.30;2252.80
55016;DHT22;40919;43.236;21.590;2022-12-08T20:35:09;256.10;2252.80
55016;DHT22;40919;43.236;21.590;2022-12-08T20:37:35;256.20;2252.80
55016;DHT22;40919;43.236;21.590;2022-12-08T20:40:02;256.10;2252.80
55016;DHT22;40919;43.236;21.590;2022-12-08T20:42:28;256.20;2252.80
55016;DHT22;40919;43.236;21.590;2022-12-08T20:44:54;231.30;2252.80
55016;DHT22;40919;43.236;21.590;2022-12-08T20:47:20;231.30;2252.80
55016;DHT22;40919;43.236;21.590;2022-12-08T20:49:46;231.30;2252.80
55016;DHT22;40919;43.236;21.590;2022-12-08T20:52:12;231.20;2252.80
55016;DHT22;40919;43.236;21.590;2022-12-08T20:54:38;231.20;2252.80
55016;DHT22;40919;43.236;21.590;2022-12-08T20:57:05;231.20;2252.80
55016;DHT22;40919;43.236;21.590;2022-12-08T20:59:31;231.30;2252.80
55016;DHT22;40919;43.236;21.590;2022-12-08T21:01:57;231.20;2252.80
55016;DHT22;40919;43.236;21.590;2022-12-08T21:04:25;231.20;2252.80
55016;DHT22;40919;43.236;21.590;2022-12-08T21:06:51;231.20;2252.80
55016;DHT22;40919;43.236;21.590;2022-12-08T21:09:17;231.10;2252.80
55016;DHT22;40919;43.236;21.590;2022-12-08T21:11:44;231.20;2252.80
55016;DHT22;40919;43.236;21.590;2022-12-08T21:14:10;231.10;2252.80
55016;DHT22;40919;43.236;21.590;2022-12-08T21:16:36;231.20;2252.80
55016;DHT22;40919;43.236;21.590;2022-12-08T21:19:02;231.20;2252.80
55016;DHT22;40919;43.236;21.590;2022-12-08T21:21:28;231.30;2252.80
55016;DHT22;40919;43.236;21.590;2022-12-08T21:23:54;231.30;2252.80
55016;DHT22;40919;43.236;21.590;2022-12-08T21:26:21;256.00;2252.80
55016;DHT22;40919;43.236;21.590;2022-12-08T21:28:50;256.00;2252.80
55016;DHT22;40919;43.236;21.590;2022-12-08T21:31:17;231.20;2252.80
55016;DHT22;40919;43.236;21.590;2022-12-08T21:33:44;231.30;2252.80
55016;DHT22;40919;43.236;21.590;2022-12-08T21:36:12;256.00;2252.80
55016;DHT22;40919;43.236;21.590;2022-12-08T21:38:39;231.20;2252.80
55016;DHT22;40919;43.236;21.590;2022-12-08T21:41:11;231.30;2252.80
55016;DHT22;40919;43.236;21.590;2022-12-08T21:43:38;231.30;2252.80
55016;DHT22;40919;43.236;21.590;2022-12-08T21:46:04;231.20;2252.80
55016;DHT22;40919;43.236;21.590;2022-12-08T21:48:30;231.10;2252.80
55016;DHT22;40919;43.236;21.590;2022-12-08T21:51:00;231.20;2252.80
55016;DHT22;40919;43.236;21.590;2022-12-08T21:53:27;231.20;2252.80
55016;DHT22;40919;43.236;21.590;2022-12-08T21:55:53;231.20;2252.80
55016;DHT22;40919;43.236;21.590;2022-12-08T21:58:18;231.00;2252.80
55016;DHT22;40919;43.236;21.590;2022-12-08T22:00:44;231.10;2252.80
55016;DHT22;40919;43.236;21.590;2022-12-08T22:03:12;231.20;2252.80
55016;DHT22;40919;43.236;21.590;2022-12-08T22:05:39;231.20;2252.80
55016;DHT22;40919;43.236;21.590;2022-12-08T22:08:05;231.20;2252.80
55016;DHT22;40919;43.236;21.590;2022-12-08T22:10:30;231.20;2252.80
55016;DHT22;40919;43.236;21.590;2022-12-08T22:12:56;231.20;2252.80
55016;DHT22;40919;43.236;21.590;2022-12-08T22:15:22;231.20;2252.80
55016;DHT22;40919;43.236;21.590;2022-12-08T22:17:48;231.20;2252.80
55016;DHT22;40919;43.236;21.590;2022-12-08T22:20:14;231.20;2252.80
55016;DHT22;40919;43.236;21.590;2022-12-08T22:22:41;231.30;2252.80
55016;DHT22;40919;43.236;21.590;2022-12-08T22:25:08;231.30;2252.80
55016;DHT22;40919;43.236;21.590;2022-12-08T22:27:36;231.20;2252.80
55016;DHT22;40919;43.236;21.590;2022-12-08T22:30:03;231.20;2252.80
55016;DHT22;40919;43.236;21.590;2022-12-08T22:32:29;231.30;2252.80
55016;DHT22;40919;43.236;21.590;2022-12-08T22:34:55;231.30;2252.80
55016;DHT22;40919;43.236;21.590;2022-12-08T22:37:21;231.30;2252.80
55016;DHT22;40919;43.236;21.590;2022-12-08T22:39:47;231.20;2252.80
55016;DHT22;40919;43.236;21.590;2022-12-08T22:42:13;231.20;2252.80
55016;DHT22;40919;43.236;21.590;2022-12-08T22:44:39;231.10;2252.80
55016;DHT22;40919;43.236;21.590;2022-12-08T22:47:05;231.20;2252.80
55016;DHT22;40919;43.236;21.590;2022-12-08T22:49:31;231.20;2252.80
55016;DHT22;40919;43.236;21.590;2022-12-08T22:51:57;231.20;2252.80
55016;DHT22;40919;43.236;21.590;2022-12-08T22:54:23;231.30;2252.80
55016;DHT22;40919;43.236;21.590;2022-12-08T22:56:49;231.30;2252.80
55016;DHT22;40919;43.236;21.590;2022-12-08T22:59:15;231.30;2252.80
55016;DHT22;40919;43.236;21.590;2022-12-08T23:01:41;256.00;2252.80
55016;DHT22;40919;43.236;21.590;2022-12-08T23:04:08;256.00;2252.80
55016;DHT22;40919;43.236;21.590;2022-12-08T23:06:34;256.00;2252.80
55016;DHT22;40919;43.236;21.590;2022-12-08T23:09:00;231.30;2252.80
55016;DHT22;40919;43.236;21.590;2022-12-08T23:11:28;231.30;2252.80
55016;DHT22;40919;43.236;21.590;2022-12-08T23:13:57;231.30;2252.80
55016;DHT22;40919;43.236;21.590;2022-12-08T23:16:25;231.30;2252.80
55016;DHT22;40919;43.236;21.590;2022-12-08T23:18:51;231.30;2252.80
55016;DHT22;40919;43.236;21.590;2022-12-08T23:21:18;231.30;2252.80
55016;DHT22;40919;43.236;21.590;2022-12-08T23:23:44;231.20;2252.80
55016;DHT22;40919;43.236;21.590;2022-12-08T23:28:44;231.30;2252.80
55016;DHT22;40919;43.236;21.590;2022-12-08T23:31:10;231.30;2252.80
55016;DHT22;40919;43.236;21.590;2022-12-08T23:33:35;231.20;2252.80
55016;DHT22;40919;43.236;21.590;2022-12-08T23:36:01;231.20;2252.80
55016;DHT22;40919;43.236;21.590;2022-12-08T23:38:27;231.20;2252.80